Time;durP1;ratioP1;P1;durP2;ratioP2;P2;SDS_P1;SDS_P2;PMS_P1;PMS_P2;Temp;Humidity;BMP_temperature;BMP_pressure;BME280_temperature;BME280_humidity;BME280_pressure;Samples;Min_cycle;Max_cycle;Signal;HPM_P1;HPM_P2
2022/04/12 00:00:32;;;;;;;0.80;0.80;;;0.50;99.90;;;;;;4992734;28;20036;-78
2022/04/12 00:02:58;;;;;;;1.30;0.70;;;0.50;99.90;;;;;;4992783;28;20106;-80
2022/04/12 00:05:24;;;;;;;0.80;0.80;;;0.50;99.90;;;;;;4992672;28;20027;-79
2022/04/12 00:07:50;;;;;;;0.63;0.63;;;0.60;99.90;;;;;;4992254;28;20030;-80
2022/04/12 00:10:16;;;;;;;0.80;0.80;;;0.50;99.90;;;;;;4992592;28;20053;-80
2022/04/12 00:12:42;;;;;;;0.80;0.80;;;0.50;99.90;;;;;;4992931;28;20027;-79
2022/04/12 00:15:09;;;;;;;0.73;0.70;;;0.50;99.90;;;;;;4992477;28;20050;-79
2022/04/12 00:20:21;;;;;;;0.80;0.80;;;0.40;99.90;;;;;;4992627;28;20081;-73
2022/04/12 00:22:47;;;;;;;0.73;0.73;;;0.30;99.90;;;;;;4992879;28;20490;-72
2022/04/12 00:25:13;;;;;;;0.68;0.68;;;0.30;99.90;;;;;;4992813;28;20114;-72
2022/04/12 00:27:41;;;;;;;2.05;0.80;;;0.30;99.90;;;;;;4992241;28;20026;-72
2022/04/12 00:30:09;;;;;;;2.25;0.70;;;0.20;99.90;;;;;;4992545;28;20033;-72
2022/04/12 00:32:35;;;;;;;0.80;0.80;;;0.20;99.90;;;;;;4992438;28;20034;-72
2022/04/12 00:35:02;;;;;;;0.77;0.77;;;0.20;99.90;;;;;;4992704;28;20061;-72
2022/04/12 00:37:28;;;;;;;0.70;0.70;;;0.20;99.90;;;;;;4992292;28;20030;-72
2022/04/12 00:39:55;;;;;;;0.80;0.80;;;0.10;99.90;;;;;;4992609;28;20509;-72
2022/04/12 00:42:21;;;;;;;0.80;0.80;;;0.10;99.90;;;;;;4992420;28;20034;-71
2022/04/12 00:44:47;;;;;;;0.77;0.77;;;0.10;99.90;;;;;;4992506;28;20042;-72
2022/04/12 00:47:13;;;;;;;0.70;0.70;;;0.10;99.90;;;;;;4992601;28;20029;-72
2022/04/12 00:49:40;;;;;;;0.88;0.60;;;0.00;99.90;;;;;;4992301;28;20081;-71
2022/04/12 00:52:07;;;;;;;0.60;0.60;;;0.00;99.90;;;;;;4992557;28;20023;-72
2022/04/12 00:54:34;;;;;;;0.60;0.60;;;0.00;99.90;;;;;;4992132;28;20393;-71
2022/04/12 00:57:01;;;;;;;0.80;0.80;;;0.00;99.90;;;;;;4992381;28;20033;-71
2022/04/12 00:59:27;;;;;;;0.75;0.70;;;0.00;99.90;;;;;;4992457;28;20026;-71
2022/04/12 01:01:53;;;;;;;0.65;0.65;;;0.00;99.90;;;;;;4998443;28;20648;-70
2022/04/12 01:04:19;;;;;;;0.60;0.60;;;0.00;99.90;;;;;;4992439;28;20085;-72
2022/04/12 01:06:46;;;;;;;0.93;0.80;;;-0.10;99.90;;;;;;4992398;28;20101;-71
2022/04/12 01:09:12;;;;;;;0.70;0.70;;;-0.10;99.90;;;;;;4992208;28;20030;-71
2022/04/12 01:11:39;;;;;;;0.80;0.80;;;-0.10;99.90;;;;;;4992264;28;20026;-71
2022/04/12 01:14:07;;;;;;;0.60;0.60;;;-0.10;99.90;;;;;;4992300;28;20065;-71
2022/04/12 01:16:33;;;;;;;0.80;0.80;;;-0.10;99.90;;;;;;4991945;28;20029;-71
2022/04/12 01:18:59;;;;;;;0.60;0.60;;;-0.10;99.90;;;;;;4992260;28;20037;-71
2022/04/12 01:21:32;;;;;;;0.73;0.70;;;-0.20;99.90;;;;;;4995898;28;20030;-70
2022/04/12 01:24:05;;;;;;;1.42;0.80;;;-0.20;99.90;;;;;;4995692;28;20110;-71
2022/04/12 01:26:32;;;;;;;0.80;0.80;;;-0.20;99.90;;;;;;4995557;28;20042;-72
2022/04/12 01:28:58;;;;;;;0.70;0.70;;;-0.20;99.90;;;;;;4995606;28;20030;-73
2022/04/12 01:31:25;;;;;;;0.70;0.70;;;-0.20;99.90;;;;;;4995766;28;20030;-72
2022/04/12 01:33:52;;;;;;;0.80;0.80;;;-0.30;99.90;;;;;;4995441;28;20042;-72
2022/04/12 01:36:18;;;;;;;0.80;0.80;;;-0.40;99.90;;;;;;4995497;28;20018;-72
2022/04/12 01:38:43;;;;;;;0.68;0.68;;;-0.40;99.90;;;;;;4995387;28;20125;-72
2022/04/12 01:41:09;;;;;;;0.80;0.80;;;-0.40;99.90;;;;;;4995442;28;20106;-72
2022/04/12 01:43:35;;;;;;;0.60;0.60;;;-0.40;99.90;;;;;;4995243;28;20022;-72
2022/04/12 01:46:01;;;;;;;1.05;0.80;;;-0.50;99.90;;;;;;4995490;28;20030;-72
2022/04/12 01:48:26;;;;;;;0.80;0.80;;;-0.50;99.90;;;;;;4995173;28;20022;-72
2022/04/12 01:50:52;;;;;;;0.73;0.73;;;-0.50;99.90;;;;;;4995526;28;20042;-73
2022/04/12 01:53:18;;;;;;;0.63;0.60;;;-0.50;99.90;;;;;;4995117;28;20052;-72
2022/04/12 01:55:44;;;;;;;0.63;0.63;;;-0.60;99.90;;;;;;4995269;28;20052;-72
2022/04/12 01:58:09;;;;;;;1.25;0.70;;;-0.60;99.90;;;;;;4977700;28;20422;-72
2022/04/12 02:00:36;;;;;;;1.42;0.90;;;-0.60;99.90;;;;;;4995359;28;20036;-72
2022/04/12 02:03:03;;;;;;;0.88;0.88;;;-0.60;99.90;;;;;;4995123;28;20034;-73
2022/04/12 02:05:28;;;;;;;0.80;0.80;;;-0.60;99.90;;;;;;4994915;28;20037;-73
2022/04/12 02:07:54;;;;;;;0.70;0.70;;;-0.60;99.90;;;;;;4995207;28;20027;-73
2022/04/12 02:10:22;;;;;;;0.82;0.82;;;-0.60;99.90;;;;;;4994929;28;20709;-72
2022/04/12 02:12:48;;;;;;;1.00;0.80;;;-0.60;99.90;;;;;;4995172;28;20039;-73
2022/04/12 02:15:14;;;;;;;2.05;0.63;;;-0.70;99.90;;;;;;4995071;28;20109;-84
2022/04/12 02:17:39;;;;;;;0.80;0.80;;;-0.70;99.90;;;;;;4995119;28;20477;-84
2022/04/12 02:20:05;;;;;;;3.53;1.35;;;-0.70;99.90;;;;;;4994863;28;20518;-83
2022/04/12 02:22:31;;;;;;;0.70;0.70;;;-0.70;99.90;;;;;;4995020;28;20023;-85
2022/04/12 02:56:26;;;;;;;0.70;0.70;;;-1.10;99.90;;;;;;4993486;28;20563;-79
2022/04/12 02:58:52;;;;;;;0.82;0.80;;;-1.10;99.90;;;;;;4993963;28;20138;-80
2022/04/12 03:01:18;;;;;;;0.70;0.70;;;-1.20;99.90;;;;;;4993935;28;20470;-80
2022/04/12 03:37:23;;;;;;;0.80;0.80;;;-1.20;99.90;;;;;;5943211;23;20050;-84
2022/04/12 03:39:51;;;;;;;1.95;0.80;;;-1.30;99.90;;;;;;5010006;28;20061;-85
2022/04/12 03:42:18;;;;;;;0.77;0.77;;;-1.30;99.90;;;;;;5012655;28;20060;-79
2022/04/12 03:44:45;;;;;;;0.68;0.68;;;-1.30;99.90;;;;;;5012825;28;20030;-79
2022/04/12 03:47:11;;;;;;;0.80;0.80;;;-1.30;99.90;;;;;;5012823;28;20077;-82
2022/04/12 03:49:37;;;;;;;0.73;0.73;;;-1.30;99.90;;;;;;5012561;28;20033;-82
2022/04/12 03:52:03;;;;;;;0.68;0.68;;;-1.30;99.90;;;;;;5012750;28;20029;-81
2022/04/12 03:54:28;;;;;;;0.80;0.80;;;-1.30;99.90;;;;;;5013728;28;20435;-82
2022/04/12 03:56:54;;;;;;;3.53;0.80;;;-1.20;99.90;;;;;;5014649;28;20544;-82
2022/04/12 03:59:21;;;;;;;1.15;0.80;;;-1.30;99.90;;;;;;5012605;28;20381;-82
2022/04/12 04:01:46;;;;;;;0.77;0.77;;;-1.30;99.90;;;;;;5012608;28;20057;-82
2022/04/12 04:04:13;;;;;;;0.98;0.80;;;-1.20;99.90;;;;;;5012752;28;20107;-78
2022/04/12 04:06:38;;;;;;;2.25;0.70;;;-1.30;99.90;;;;;;5013152;28;20022;-82
2022/04/12 04:09:04;;;;;;;4.30;0.80;;;-1.20;99.90;;;;;;5013403;28;20041;-78
2022/04/12 04:11:30;;;;;;;0.90;0.90;;;-1.30;99.90;;;;;;4995064;28;20385;-79
2022/04/12 04:13:56;;;;;;;1.02;0.80;;;-1.30;99.90;;;;;;5012118;28;20385;-81
2022/04/12 04:16:22;;;;;;;1.25;0.90;;;-1.30;99.90;;;;;;5012481;28;20025;-79
2022/04/12 04:18:47;;;;;;;0.75;0.75;;;-1.30;99.90;;;;;;5011943;28;20536;-80
2022/04/12 04:21:13;;;;;;;0.80;0.80;;;-1.30;99.90;;;;;;5012259;28;20061;-83
2022/04/12 04:23:39;;;;;;;0.93;0.77;;;-1.30;99.90;;;;;;5012281;28;20073;-79
2022/04/12 04:26:04;;;;;;;0.80;0.80;;;-1.30;99.90;;;;;;5012198;28;20022;-82
2022/04/12 04:28:33;;;;;;;0.70;0.68;;;-1.30;99.90;;;;;;5012061;28;20026;-81
2022/04/12 04:30:59;;;;;;;0.73;0.73;;;-1.30;99.90;;;;;;5012146;28;20022;-72
2022/04/12 04:33:25;;;;;;;1.45;0.80;;;-1.20;99.90;;;;;;5012096;28;20065;-70
2022/04/12 04:35:51;;;;;;;0.80;0.80;;;-1.20;99.90;;;;;;5011983;28;20038;-73
2022/04/12 04:38:17;;;;;;;0.68;0.68;;;-1.10;99.90;;;;;;5011895;28;20053;-70
2022/04/12 04:40:43;;;;;;;1.00;0.80;;;-0.90;99.90;;;;;;5011976;28;20033;-69
2022/04/12 04:43:09;;;;;;;0.80;0.70;;;-0.70;99.90;;;;;;5012015;28;20097;-70
2022/04/12 04:45:36;;;;;;;0.73;0.73;;;-0.40;99.90;;;;;;5011924;28;20026;-73
2022/04/12 04:48:03;;;;;;;1.65;1.13;;;0.20;99.90;;;;;;4997820;28;20034;-73
2022/04/12 04:50:31;;;;;;;2.15;0.70;;;0.60;99.90;;;;;;4991923;28;20489;-72
2022/04/12 04:52:59;;;;;;;0.90;0.90;;;1.10;99.90;;;;;;5005876;28;20050;-77
2022/04/12 04:55:25;;;;;;;1.15;0.90;;;1.40;99.90;;;;;;5013985;28;20125;-83
2022/04/12 04:57:59;;;;;;;1.15;0.80;;;1.70;99.90;;;;;;5014243;28;20105;-71
2022/04/12 05:00:29;;;;;;;1.10;1.00;;;2.10;99.90;;;;;;5008903;28;20474;-72
2022/04/12 05:02:54;;;;;;;1.05;1.05;;;2.40;99.90;;;;;;5008852;28;20125;-70
2022/04/12 05:05:21;;;;;;;1.48;0.90;;;2.70;99.90;;;;;;5010284;28;20513;-70
2022/04/12 05:07:48;;;;;;;0.80;0.80;;;3.10;99.50;;;;;;5012699;28;20045;-70
2022/04/12 05:10:16;;;;;;;0.95;0.60;;;3.40;97.30;;;;;;5012213;28;20459;-71
2022/04/12 05:12:42;;;;;;;1.73;0.50;;;3.70;95.40;;;;;;5011641;28;20025;-71
2022/04/12 05:15:08;;;;;;;1.27;0.80;;;4.00;93.80;;;;;;5011125;28;20499;-71
2022/04/12 05:17:34;;;;;;;1.30;0.85;;;4.30;92.70;;;;;;5008973;28;20492;-73
2022/04/12 05:20:00;;;;;;;2.70;0.77;;;4.50;91.00;;;;;;5014881;28;20037;-70
2022/04/12 05:22:27;;;;;;;1.73;0.60;;;4.80;89.00;;;;;;5015347;28;20384;-72
2022/04/12 05:24:53;;;;;;;4.10;0.70;;;5.00;87.30;;;;;;5015010;28;20030;-69
2022/04/12 05:27:20;;;;;;;1.48;0.52;;;5.10;86.80;;;;;;5015115;28;20022;-69
2022/04/12 05:29:46;;;;;;;0.88;0.68;;;5.40;83.90;;;;;;5015020;28;20129;-69
2022/04/12 05:32:13;;;;;;;0.60;0.60;;;5.70;82.20;;;;;;5015219;28;20026;-69
2022/04/12 05:34:46;;;;;;;0.70;0.70;;;5.90;82.10;;;;;;5014918;28;20041;-69
2022/04/12 05:37:12;;;;;;;2.80;0.68;;;6.00;79.40;;;;;;5014922;28;20029;-69
2022/04/12 05:39:38;;;;;;;2.08;0.63;;;6.20;79.60;;;;;;5014815;28;20034;-69
2022/04/12 05:42:04;;;;;;;0.70;0.70;;;6.50;78.40;;;;;;5015072;28;20066;-69
2022/04/12 05:44:34;;;;;;;2.75;0.70;;;6.70;76.30;;;;;;5014780;28;20101;-69
2022/04/12 05:47:01;;;;;;;1.13;0.60;;;6.80;75.70;;;;;;5015037;28;20128;-69
2022/04/12 05:49:27;;;;;;;3.53;0.75;;;7.10;74.40;;;;;;5014418;28;20595;-70
2022/04/12 05:51:53;;;;;;;0.60;0.60;;;7.30;74.50;;;;;;5014705;28;20032;-68
2022/04/12 05:54:19;;;;;;;3.50;0.45;;;7.50;73.00;;;;;;5014730;28;20026;-76
2022/04/12 05:56:45;;;;;;;7.68;0.82;;;7.60;72.50;;;;;;5014739;28;20030;-72
2022/04/12 05:59:10;;;;;;;0.98;0.50;;;7.60;70.60;;;;;;5014777;28;20030;-72
2022/04/12 06:01:36;;;;;;;3.03;0.55;;;7.80;70.90;;;;;;5014697;28;20033;-72
2022/04/12 06:04:02;;;;;;;0.50;0.50;;;8.10;81.30;;;;;;5014763;28;20029;-68
2022/04/12 06:06:27;;;;;;;0.85;0.60;;;8.80;73.90;;;;;;5013609;28;20072;-74
2022/04/12 06:08:53;;;;;;;1.52;0.90;;;9.20;73.20;;;;;;5014084;28;20029;-73
2022/04/12 06:11:19;;;;;;;1.05;0.60;;;9.00;68.60;;;;;;5014716;28;20022;-76
2022/04/12 06:13:45;;;;;;;2.35;0.50;;;8.90;67.40;;;;;;5014381;28;20030;-74
2022/04/12 06:16:11;;;;;;;0.82;0.60;;;8.60;66.10;;;;;;5014362;28;20030;-80
2022/04/12 06:18:36;;;;;;;1.60;0.50;;;8.50;67.20;;;;;;5014060;28;20029;-84
2022/04/12 06:21:02;;;;;;;2.42;0.68;;;8.50;67.50;;;;;;5014285;28;20041;-83
2022/04/12 06:23:28;;;;;;;0.68;0.63;;;8.40;66.70;;;;;;5014098;28;20029;-81
2022/04/12 06:25:55;;;;;;;1.08;0.52;;;8.40;67.10;;;;;;5014114;28;20547;-80
2022/04/12 06:28:21;;;;;;;0.77;0.43;;;8.30;67.00;;;;;;5013783;28;20469;-82
2022/04/12 06:30:48;;;;;;;2.72;0.52;;;8.30;66.80;;;;;;5013995;28;20487;-70
2022/04/12 06:33:14;;;;;;;2.38;0.55;;;8.20;66.80;;;;;;5014281;28;20110;-70
2022/04/12 06:35:40;;;;;;;1.67;0.50;;;8.20;67.10;;;;;;5013865;28;20034;-74
2022/04/12 06:38:06;;;;;;;1.73;0.60;;;8.20;67.00;;;;;;4995821;28;20042;-73
2022/04/12 06:40:32;;;;;;;0.90;0.60;;;8.10;66.70;;;;;;5011665;28;20088;-74
2022/04/12 06:42:58;;;;;;;0.80;0.63;;;8.10;67.00;;;;;;5027223;28;20388;-69
2022/04/12 06:45:24;;;;;;;2.30;0.63;;;8.20;67.30;;;;;;5016357;28;20025;-71
2022/04/12 06:47:55;;;;;;;2.30;0.57;;;8.00;66.70;;;;;;5032838;28;20033;-72
2022/04/12 06:50:21;;;;;;;2.50;0.50;;;8.10;67.60;;;;;;5022645;28;20054;-72
2022/04/12 06:52:47;;;;;;;2.60;0.65;;;8.20;67.80;;;;;;5012780;28;20030;-72
2022/04/12 06:55:12;;;;;;;3.15;0.75;;;8.20;67.00;;;;;;5028852;28;20044;-72
2022/04/12 06:57:38;;;;;;;1.60;0.55;;;8.10;66.90;;;;;;4999023;28;20487;-72
2022/04/12 07:00:06;;;;;;;5.50;0.93;;;8.00;67.50;;;;;;5022231;28;20088;-72
2022/04/12 07:02:32;;;;;;;0.75;0.50;;;8.00;67.90;;;;;;4999534;28;20452;-72
2022/04/12 07:04:57;;;;;;;1.90;0.50;;;8.10;67.50;;;;;;5008449;28;20108;-72
2022/04/12 07:07:24;;;;;;;1.40;0.70;;;8.20;68.10;;;;;;5014566;28;20025;-72
2022/04/12 07:09:50;;;;;;;2.22;0.50;;;8.30;67.00;;;;;;5017968;28;20029;-71
2022/04/12 07:12:16;;;;;;;3.67;0.57;;;8.30;66.70;;;;;;5022963;28;20030;-72
2022/04/12 07:14:41;;;;;;;1.80;0.60;;;8.30;66.70;;;;;;5025088;28;20075;-72
2022/04/12 07:17:07;;;;;;;2.28;0.60;;;8.20;66.70;;;;;;5016107;28;20026;-72
2022/04/12 07:19:33;;;;;;;1.55;0.60;;;8.20;66.90;;;;;;5028920;28;20528;-72
2022/04/12 07:21:59;;;;;;;2.80;0.70;;;8.10;67.70;;;;;;5019381;28;20017;-72
2022/04/12 07:24:24;;;;;;;3.05;0.88;;;8.00;66.90;;;;;;5004404;28;20030;-69
2022/04/12 07:26:50;;;;;;;0.98;0.50;;;7.90;67.20;;;;;;5026269;28;20025;-69
2022/04/12 07:29:16;;;;;;;3.38;0.68;;;7.70;66.90;;;;;;5016083;28;20025;-68
2022/04/12 07:31:43;;;;;;;1.08;0.50;;;7.70;67.40;;;;;;5010050;28;20483;-69
2022/04/12 07:34:09;;;;;;;1.50;0.60;;;7.60;67.90;;;;;;5020468;28;20447;-69
2022/04/12 07:36:39;;;;;;;0.70;0.60;;;7.50;68.30;;;;;;5032086;28;20068;-69
2022/04/12 07:39:08;;;;;;;1.00;0.73;;;7.50;68.70;;;;;;5003649;28;20046;-69
2022/04/12 07:41:34;;;;;;;6.03;1.13;;;7.50;68.80;;;;;;5005922;28;20282;-69
2022/04/12 07:44:00;;;;;;;1.02;0.50;;;7.50;69.00;;;;;;5009975;28;20099;-69
2022/04/12 07:46:25;;;;;;;0.52;0.40;;;7.40;69.50;;;;;;4991429;28;20500;-69
2022/04/12 07:48:51;;;;;;;3.17;0.60;;;7.20;69.20;;;;;;5001404;28;20084;-70
2022/04/12 07:51:17;;;;;;;2.30;0.50;;;7.10;69.20;;;;;;5026032;28;20025;-69
2022/04/12 07:53:44;;;;;;;2.92;0.63;;;7.00;69.50;;;;;;5012260;28;20064;-70
2022/04/12 07:56:09;;;;;;;0.88;0.60;;;7.00;69.90;;;;;;5023447;28;20461;-70
2022/04/12 07:58:35;;;;;;;0.88;0.60;;;7.00;70.40;;;;;;5023502;28;20021;-70
2022/04/12 08:01:01;;;;;;;0.73;0.50;;;7.10;70.70;;;;;;5014886;28;20069;-67
2022/04/12 08:03:27;;;;;;;7.50;0.90;;;7.00;70.90;;;;;;5027909;28;20028;-70
2022/04/12 08:05:53;;;;;;;2.67;0.80;;;7.20;82.30;;;;;;5000605;28;20023;-67
2022/04/12 08:08:19;;;;;;;4.45;0.80;;;7.40;74.20;;;;;;5021953;28;20033;-69
2022/04/12 08:10:45;;;;;;;1.33;1.23;;;7.10;72.70;;;;;;5006954;28;20078;-68
2022/04/12 08:13:11;;;;;;;3.03;0.82;;;7.20;74.70;;;;;;5014846;28;20037;-68
2022/04/12 08:15:37;;;;;;;2.60;0.70;;;7.10;72.20;;;;;;5027588;28;20037;-68
2022/04/12 08:18:04;;;;;;;3.80;0.90;;;7.00;71.90;;;;;;5018871;28;20029;-68
2022/04/12 08:20:29;;;;;;;1.95;0.73;;;6.90;72.30;;;;;;5031490;28;20112;-69
2022/04/12 08:22:56;;;;;;;3.92;0.73;;;6.80;72.30;;;;;;5025584;28;20129;-71
2022/04/12 08:25:22;;;;;;;4.40;1.23;;;6.90;73.00;;;;;;5014872;28;20540;-72
2022/04/12 08:27:48;;;;;;;2.42;0.70;;;7.30;99.90;;;;;;5015673;28;20184;-71
2022/04/12 08:30:14;;;;;;;1.90;0.65;;;7.90;95.20;;;;;;5007877;28;20397;-70
2022/04/12 08:32:41;;;;;;;1.65;0.70;;;7.90;80.20;;;;;;5012178;28;20036;-66
2022/04/12 08:35:07;;;;;;;0.75;0.63;;;7.70;77.50;;;;;;4997257;28;20041;-71
2022/04/12 08:37:33;;;;;;;1.38;0.68;;;7.60;76.50;;;;;;4999058;28;20043;-71
2022/04/12 08:39:59;;;;;;;2.15;0.80;;;7.50;76.20;;;;;;5006045;28;20045;-75
2022/04/12 08:42:26;;;;;;;0.98;0.63;;;7.50;76.20;;;;;;5006454;28;20029;-68
2022/04/12 08:44:51;;;;;;;5.07;0.60;;;7.40;75.70;;;;;;5005383;28;20377;-70
2022/04/12 08:47:18;;;;;;;2.72;0.60;;;7.50;78.30;;;;;;5009952;28;20026;-68
2022/04/12 08:49:45;;;;;;;25.92;1.85;;;7.50;76.40;;;;;;5011298;28;20537;-67
2022/04/12 08:52:12;;;;;;;2.13;0.70;;;7.50;76.10;;;;;;5011451;28;20026;-67
2022/04/12 08:54:43;;;;;;;2.28;0.50;;;7.50;76.30;;;;;;4997391;28;20030;-67
2022/04/12 08:57:10;;;;;;;1.63;0.63;;;7.50;76.70;;;;;;4987233;28;20030;-68
2022/04/12 08:59:37;;;;;;;0.60;0.60;;;7.50;74.90;;;;;;5011331;28;20025;-68
2022/04/12 09:02:06;;;;;;;5.47;0.70;;;7.50;74.70;;;;;;5011962;28;20393;-70
2022/04/12 09:04:33;;;;;;;27.00;2.25;;;7.40;74.20;;;;;;5011584;28;20032;-67
2022/04/12 09:06:59;;;;;;;5.85;0.65;;;7.40;74.90;;;;;;5011794;28;20121;-66
2022/04/12 09:09:30;;;;;;;3.42;0.65;;;7.40;75.20;;;;;;5012200;28;20026;-70
2022/04/12 09:12:09;;;;;;;1.08;0.60;;;7.40;75.00;;;;;;5011463;28;20034;-70
2022/04/12 09:14:40;;;;;;;2.65;0.60;;;7.40;74.10;;;;;;5011679;28;20064;-72
2022/04/12 09:17:19;;;;;;;4.68;0.50;;;7.40;74.20;;;;;;5011806;28;20026;-72
2022/04/12 09:19:46;;;;;;;6.25;0.50;;;7.40;74.20;;;;;;5011356;28;20104;-72
2022/04/12 09:22:23;;;;;;;7.63;0.77;;;7.50;75.60;;;;;;5011440;28;20101;-71
2022/04/12 09:24:57;;;;;;;0.55;0.50;;;7.60;75.20;;;;;;5011753;28;20026;-72
2022/04/12 09:27:30;;;;;;;0.73;0.50;;;7.60;72.60;;;;;;5011543;28;20098;-70
2022/04/12 09:30:01;;;;;;;2.42;0.70;;;7.50;72.10;;;;;;5011358;28;20512;-71
2022/04/12 09:32:29;;;;;;;13.55;0.88;;;7.40;71.30;;;;;;5011095;28;20026;-70
2022/04/12 09:34:56;;;;;;;1.65;0.60;;;7.40;72.20;;;;;;5003912;28;20177;-69
2022/04/12 09:37:26;;;;;;;4.00;0.73;;;7.50;72.60;;;;;;4991257;28;20094;-70
2022/04/12 09:40:03;;;;;;;5.75;1.00;;;7.50;72.60;;;;;;4992502;28;20049;-70
2022/04/12 09:42:42;;;;;;;0.50;0.50;;;7.50;73.80;;;;;;5012921;28;20120;-68
2022/04/12 09:45:13;;;;;;;3.60;0.68;;;7.50;72.40;;;;;;5014033;28;20021;-69
2022/04/12 09:47:40;;;;;;;1.27;0.63;;;7.50;72.70;;;;;;5013709;28;20493;-68
2022/04/12 09:50:07;;;;;;;7.15;0.98;;;7.60;73.10;;;;;;5014167;28;20029;-69
2022/04/12 09:52:33;;;;;;;2.08;0.73;;;7.60;73.10;;;;;;5014250;28;20025;-70
2022/04/12 09:54:59;;;;;;;1.20;0.60;;;7.60;73.30;;;;;;4995972;28;20172;-69
2022/04/12 09:57:25;;;;;;;1.83;0.50;;;7.60;72.40;;;;;;5014232;28;20013;-70
2022/04/12 09:59:56;;;;;;;2.30;0.90;;;7.60;73.20;;;;;;5013948;28;20029;-70
2022/04/12 10:02:23;;;;;;;1.85;0.60;;;7.70;74.20;;;;;;5014620;28;20045;-72
2022/04/12 10:04:52;;;;;;;1.88;0.57;;;7.70;72.70;;;;;;5014600;28;20040;-74
2022/04/12 10:07:20;;;;;;;0.85;0.60;;;7.80;89.70;;;;;;5012516;28;20022;-73
2022/04/12 10:09:49;;;;;;;5.72;0.77;;;8.40;99.90;;;;;;5013647;28;20022;-73
2022/04/12 10:12:15;;;;;;;4.15;0.50;;;9.00;99.90;;;;;;5029570;28;20349;-73
2022/04/12 10:14:41;;;;;;;3.42;0.60;;;9.30;91.80;;;;;;5011955;28;20084;-73
2022/04/12 10:17:07;;;;;;;0.40;0.40;;;9.50;91.30;;;;;;5020965;28;20453;-70
2022/04/12 10:19:35;;;;;;;0.70;0.50;;;9.70;86.10;;;;;;5021789;28;20061;-71
2022/04/12 10:22:03;;;;;;;1.20;0.60;;;9.70;78.10;;;;;;5024182;28;20045;-69
2022/04/12 10:24:30;;;;;;;2.60;0.77;;;9.70;82.20;;;;;;5030090;28;20061;-68
2022/04/12 10:26:56;;;;;;;4.90;0.65;;;9.80;78.80;;;;;;5019569;28;20020;-68
2022/04/12 10:29:22;;;;;;;1.95;1.15;;;10.00;77.20;;;;;;5030284;28;20029;-69
2022/04/12 10:32:03;;;;;;;1.38;0.80;;;10.10;76.80;;;;;;5002234;28;20034;-70
2022/04/12 10:34:29;;;;;;;0.60;0.50;;;10.30;75.80;;;;;;5029925;28;20045;-69
2022/04/12 10:36:54;;;;;;;8.43;0.60;;;10.40;73.90;;;;;;5019343;28;20022;-70
2022/04/12 10:39:53;;;;;;;50.10;3.67;;;10.40;72.50;;;;;;5023387;28;20396;-70
2022/04/12 10:42:24;;;;;;;3.38;0.80;;;10.60;74.00;;;;;;5022945;28;20166;-71
2022/04/12 10:44:56;;;;;;;3.17;0.57;;;10.70;72.90;;;;;;5018789;28;20022;-70
2022/04/12 10:47:43;;;;;;;21.88;1.33;;;10.80;73.10;;;;;;5033410;28;20029;-70
2022/04/12 10:50:13;;;;;;;12.50;1.05;;;10.90;74.40;;;;;;5014457;28;20065;-71
2022/04/12 10:52:43;;;;;;;0.65;0.60;;;10.90;71.00;;;;;;5011803;28;20072;-69
2022/04/12 10:55:14;;;;;;;0.80;0.60;;;10.90;71.50;;;;;;5009795;28;20080;-70
2022/04/12 10:57:40;;;;;;;1.70;0.50;;;10.60;68.40;;;;;;5013505;28;20112;-72
2022/04/12 11:00:13;;;;;;;3.13;0.63;;;11.30;85.80;;;;;;5013137;28;20105;-72
2022/04/12 11:02:42;;;;;;;2.03;0.50;;;11.00;67.40;;;;;;5013865;28;20101;-72
2022/04/12 11:05:33;;;;;;;0.50;0.50;;;10.50;64.50;;;;;;5013062;28;20029;-72
2022/04/12 11:08:19;;;;;;;1.05;0.47;;;10.00;64.10;;;;;;5012885;28;20146;-72
2022/04/12 11:10:51;;;;;;;4.00;0.45;;;9.70;64.70;;;;;;5011674;28;20362;-73
2022/04/12 11:13:21;;;;;;;3.05;0.60;;;9.50;64.70;;;;;;4995620;28;20600;-72
2022/04/12 11:15:54;;;;;;;1.88;0.63;;;9.30;64.80;;;;;;5013096;28;20088;-73
2022/04/12 11:18:20;;;;;;;1.63;0.40;;;9.30;66.30;;;;;;5013121;28;20026;-69
2022/04/12 11:20:59;;;;;;;7.65;1.17;;;9.80;92.20;;;;;;5013416;28;20141;-73
2022/04/12 11:23:54;;;;;;;2.97;0.65;;;10.70;75.00;;;;;;5010179;28;20045;-73
2022/04/12 11:26:37;;;;;;;8.90;1.00;;;10.30;67.30;;;;;;5011010;28;20480;-73
2022/04/12 11:29:10;;;;;;;4.20;0.70;;;9.80;66.80;;;;;;5013096;28;20038;-72
2022/04/12 11:31:51;;;;;;;1.35;0.50;;;10.40;82.80;;;;;;5013077;28;20477;-72
2022/04/12 11:34:18;;;;;;;1.20;0.50;;;10.30;67.00;;;;;;5012870;28;20034;-71
2022/04/12 11:37:08;;;;;;;5.57;0.50;;;10.10;69.50;;;;;;5013043;28;20036;-71
2022/04/12 11:39:43;;;;;;;2.78;0.65;;;10.30;71.20;;;;;;5003020;28;20125;-71
2022/04/12 11:42:12;;;;;;;2.00;0.47;;;10.00;65.10;;;;;;5012626;28;20030;-71
2022/04/12 11:44:38;;;;;;;5.10;0.70;;;9.70;64.20;;;;;;5012654;28;20080;-71
2022/04/12 11:47:11;;;;;;;30.98;1.67;;;9.50;63.40;;;;;;5012770;28;20034;-71
2022/04/12 11:49:42;;;;;;;1.80;0.60;;;9.40;64.90;;;;;;5012829;28;20145;-71
2022/04/12 11:52:10;;;;;;;1.48;0.75;;;9.30;64.50;;;;;;5012312;28;20493;-71
2022/04/12 11:54:37;;;;;;;1.08;0.60;;;9.30;64.50;;;;;;5012327;28;20034;-71
2022/04/12 11:57:11;;;;;;;4.57;0.60;;;9.20;64.40;;;;;;5012353;28;20057;-71
2022/04/12 11:59:44;;;;;;;8.65;1.13;;;9.10;63.30;;;;;;5012286;28;20065;-72
2022/04/12 12:02:11;;;;;;;21.55;1.58;;;9.10;63.60;;;;;;5012231;28;20557;-71
2022/04/12 12:04:51;;;;;;;1.35;0.70;;;9.10;64.70;;;;;;5012295;28;20026;-71
2022/04/12 12:07:18;;;;;;;1.45;0.43;;;9.10;64.60;;;;;;5012361;28;20037;-71
2022/04/12 12:09:57;;;;;;;3.30;0.50;;;9.00;63.40;;;;;;5012129;28;20091;-71
2022/04/12 12:12:46;;;;;;;1.88;0.70;;;9.00;63.40;;;;;;5012093;28;20049;-71
2022/04/12 12:15:18;;;;;;;2.00;0.60;;;9.00;63.00;;;;;;5012049;28;20040;-71
2022/04/12 12:17:46;;;;;;;0.88;0.63;;;9.00;64.50;;;;;;5012068;28;20503;-71
2022/04/12 12:20:13;;;;;;;16.73;2.08;;;9.10;65.00;;;;;;5011898;28;20473;-71
2022/04/12 12:22:41;;;;;;;5.18;0.70;;;9.10;64.30;;;;;;5012054;28;20037;-71
2022/04/12 12:25:07;;;;;;;2.83;0.70;;;9.20;64.10;;;;;;5012245;28;20018;-71
2022/04/12 12:27:36;;;;;;;0.95;0.60;;;9.30;63.80;;;;;;5011968;28;20036;-71
2022/04/12 12:30:10;;;;;;;0.65;0.50;;;9.30;63.20;;;;;;5011909;28;20482;-71
2022/04/12 12:32:38;;;;;;;1.45;0.50;;;9.30;62.90;;;;;;5012043;28;20033;-71
2022/04/12 12:35:11;;;;;;;1.42;0.60;;;9.30;62.60;;;;;;5012115;28;20033;-71
2022/04/12 12:37:38;;;;;;;0.82;0.50;;;9.20;62.30;;;;;;5011858;28;20026;-72
2022/04/12 12:40:17;;;;;;;11.93;0.68;;;9.10;61.90;;;;;;5011771;28;20045;-71
2022/04/12 12:42:44;;;;;;;2.72;0.77;;;9.10;61.50;;;;;;5012152;28;20029;-71
2022/04/12 12:45:11;;;;;;;18.10;1.45;;;9.10;61.00;;;;;;5011824;28;20092;-71
2022/04/12 12:47:39;;;;;;;5.57;0.80;;;9.10;61.10;;;;;;5011947;28;20502;-71
2022/04/12 12:50:11;;;;;;;7.03;0.95;;;9.10;63.60;;;;;;5011950;28;20045;-71
2022/04/12 12:52:37;;;;;;;6.07;0.63;;;9.10;61.50;;;;;;5012054;28;20014;-71
2022/04/12 12:55:07;;;;;;;1.75;0.50;;;9.00;60.70;;;;;;5011594;28;20103;-71
2022/04/12 12:57:39;;;;;;;;;;;8.90;60.90;;;;;;5012578;28;20385;-71
2022/04/12 13:00:07;;;;;;;2.65;0.47;;;8.80;61.20;;;;;;5011595;28;20283;-71
2022/04/12 13:02:35;;;;;;;3.03;0.63;;;8.70;61.10;;;;;;5011794;28;20034;-71
2022/04/12 13:05:06;;;;;;;1.55;0.63;;;8.60;62.40;;;;;;5012054;28;20354;-71
2022/04/12 13:07:34;;;;;;;8.02;0.90;;;8.60;62.20;;;;;;5011712;28;20061;-71
2022/04/12 13:10:18;;;;;;;4.43;0.60;;;8.50;62.50;;;;;;5011590;28;20045;-71
2022/04/12 13:12:45;;;;;;;5.25;0.60;;;8.50;62.70;;;;;;5011824;28;20037;-71
2022/04/12 13:15:12;;;;;;;2.10;0.70;;;8.40;63.20;;;;;;5011983;28;20133;-71
2022/04/12 13:17:39;;;;;;;1.40;0.57;;;8.40;63.40;;;;;;5015495;28;20180;-71
2022/04/12 13:20:08;;;;;;;3.05;0.60;;;8.40;63.60;;;;;;5015304;28;20025;-71
2022/04/12 13:22:34;;;;;;;11.40;0.70;;;8.40;63.40;;;;;;5015304;28;20026;-71
2022/04/12 13:25:00;;;;;;;1.65;0.60;;;8.40;63.70;;;;;;5007228;28;20390;-71
2022/04/12 13:27:26;;;;;;;6.35;1.08;;;8.40;64.10;;;;;;4995731;28;20157;-71
2022/04/12 13:29:52;;;;;;;4.45;0.80;;;8.30;64.90;;;;;;4995650;28;20081;-71
2022/04/12 13:32:19;;;;;;;6.00;2.10;;;8.30;66.00;;;;;;4995510;28;20031;-71
2022/04/12 13:34:45;;;;;;;6.18;1.30;;;8.40;67.30;;;;;;4995668;28;20509;-71
2022/04/12 13:37:11;;;;;;;1.25;0.60;;;8.40;68.50;;;;;;4995487;28;20047;-71
2022/04/12 13:39:37;;;;;;;4.25;1.60;;;8.60;78.70;;;;;;4996431;28;20050;-75
2022/04/12 13:42:05;;;;;;;5.47;1.13;;;9.40;71.90;;;;;;5014666;28;20034;-68
2022/04/12 13:44:32;;;;;;;6.90;1.35;;;9.20;67.60;;;;;;5014978;28;20514;-70
2022/04/12 13:46:59;;;;;;;4.35;1.50;;;8.90;68.40;;;;;;5015019;28;20038;-67
2022/04/12 13:49:25;;;;;;;23.00;3.03;;;8.80;68.70;;;;;;5014307;28;20563;-67
2022/04/12 13:51:51;;;;;;;5.00;1.80;;;8.70;69.20;;;;;;5014689;28;20026;-67
2022/04/12 13:54:17;;;;;;;22.70;3.15;;;8.60;69.00;;;;;;5014645;28;20029;-67
2022/04/12 13:56:43;;;;;;;17.10;3.08;;;8.50;69.40;;;;;;5014747;28;20052;-68
2022/04/12 13:59:08;;;;;;;13.77;2.47;;;8.40;69.60;;;;;;5014663;28;20110;-68
2022/04/12 14:01:34;;;;;;;13.13;2.70;;;8.40;69.00;;;;;;5014538;28;20493;-67
2022/04/12 14:04:00;;;;;;;18.17;2.92;;;8.40;68.80;;;;;;5014644;28;20022;-67